Time;durP1;ratioP1;P1;durP2;ratioP2;P2;SDS_P1;SDS_P2;PMS_P1;PMS_P2;Temp;Humidity;BMP_temperature;BMP_pressure;BME280_temperature;BME280_humidity;BME280_pressure;Samples;Min_cycle;Max_cycle;Signal;HPM_P1;HPM_P2
2021/08/04 00:01:38;;;;;;;3.33;1.77;;;14.20;99.90;;;;;;5069804;28;20047;-64
2021/08/04 00:04:04;;;;;;;7.28;1.92;;;14.20;99.90;;;;;;5070021;28;20566;-64
2021/08/04 00:06:29;;;;;;;2.67;1.42;;;14.20;99.90;;;;;;5069066;28;20029;-64
2021/08/04 00:08:57;;;;;;;5.13;1.40;;;14.20;99.90;;;;;;5089553;28;20043;-64
2021/08/04 00:11:23;;;;;;;3.67;1.90;;;14.20;99.90;;;;;;5089358;28;20028;-64
2021/08/04 00:13:49;;;;;;;2.90;1.55;;;14.20;99.90;;;;;;5088707;28;20088;-64
2021/08/04 00:16:14;;;;;;;4.85;1.35;;;14.20;99.90;;;;;;5088517;28;20232;-64
2021/08/04 00:18:40;;;;;;;3.30;1.95;;;14.20;99.90;;;;;;5089420;28;20485;-64
2021/08/04 00:21:05;;;;;;;3.80;1.80;;;14.20;99.90;;;;;;5089815;28;20549;-64
2021/08/04 00:23:31;;;;;;;3.35;1.80;;;14.10;99.90;;;;;;5090006;28;20043;-64
2021/08/04 00:25:57;;;;;;;3.35;1.60;;;14.10;99.90;;;;;;5088968;28;20028;-64
2021/08/04 00:28:23;;;;;;;3.55;1.48;;;14.00;99.90;;;;;;5089616;28;20062;-63
2021/08/04 00:30:48;;;;;;;3.22;1.50;;;14.00;99.90;;;;;;5088770;28;20031;-64
2021/08/04 00:33:14;;;;;;;6.63;1.50;;;14.00;99.90;;;;;;5089834;28;20028;-63
2021/08/04 00:35:39;;;;;;;3.85;1.80;;;13.90;99.90;;;;;;5088977;28;20114;-64
2021/08/04 00:38:10;;;;;;;4.50;1.85;;;13.90;99.90;;;;;;5089472;28;20534;-64
2021/08/04 00:40:36;;;;;;;3.58;2.00;;;13.80;99.90;;;;;;5089598;28;20032;-64
2021/08/04 00:43:01;;;;;;;5.78;2.15;;;13.80;99.90;;;;;;5089309;28;20032;-64
2021/08/04 00:45:27;;;;;;;4.32;2.10;;;13.80;99.90;;;;;;5089210;28;20532;-64
2021/08/04 00:47:52;;;;;;;3.67;1.83;;;13.80;99.90;;;;;;5089018;28;20146;-64
2021/08/04 00:50:18;;;;;;;4.65;2.00;;;13.80;99.90;;;;;;5089380;28;20040;-64
2021/08/04 00:52:45;;;;;;;3.38;1.80;;;13.80;99.90;;;;;;5088709;28;20071;-64
2021/08/04 00:55:12;;;;;;;7.57;2.65;;;13.90;99.90;;;;;;5089356;28;20074;-64
2021/08/04 00:57:37;;;;;;;4.60;2.20;;;13.90;99.90;;;;;;5088984;28;20036;-64
2021/08/04 01:00:04;;;;;;;3.78;1.90;;;13.90;99.90;;;;;;5078623;28;20541;-64
2021/08/04 01:02:57;;;;;;;5.00;2.35;;;13.90;99.90;;;;;;5088952;28;20036;-64
2021/08/04 01:05:26;;;;;;;4.80;1.85;;;13.90;99.90;;;;;;5086019;28;20089;-64
2021/08/04 01:08:01;;;;;;;5.85;2.20;;;13.90;99.90;;;;;;5089198;28;20028;-64
2021/08/04 01:10:31;;;;;;;3.28;1.98;;;13.90;99.90;;;;;;5089226;28;20028;-64
2021/08/04 01:13:09;;;;;;;5.60;2.50;;;13.90;99.90;;;;;;5089351;28;20035;-63
2021/08/04 01:15:39;;;;;;;4.47;2.47;;;13.90;99.90;;;;;;5088905;28;20028;-64
2021/08/04 01:18:07;;;;;;;4.05;2.33;;;13.90;99.90;;;;;;5089325;28;20035;-63
2021/08/04 01:20:32;;;;;;;3.53;2.20;;;13.90;99.90;;;;;;5088537;28;20056;-64
2021/08/04 01:23:43;;;;;;;5.82;2.63;;;14.00;99.90;;;;;;5089130;28;20063;-64
2021/08/04 01:26:26;;;;;;;4.63;2.15;;;14.00;99.90;;;;;;5079671;28;20648;-64
2021/08/04 01:28:53;;;;;;;5.65;2.05;;;14.10;99.90;;;;;;5087828;28;20029;-64
2021/08/04 01:31:27;;;;;;;3.85;1.90;;;14.20;99.90;;;;;;5092375;28;20088;-64
2021/08/04 01:33:55;;;;;;;4.13;1.80;;;14.30;99.90;;;;;;5082806;28;20032;-64
2021/08/04 01:36:21;;;;;;;4.25;1.88;;;14.30;99.90;;;;;;5092806;28;20051;-64
2021/08/04 01:38:47;;;;;;;3.20;1.80;;;14.30;99.90;;;;;;5092338;28;20051;-64
2021/08/04 01:41:15;;;;;;;5.20;2.50;;;14.30;99.90;;;;;;5091538;28;20062;-64
2021/08/04 01:43:42;;;;;;;5.55;2.15;;;14.30;99.90;;;;;;5092783;28;20114;-64
2021/08/04 01:46:10;;;;;;;5.60;1.80;;;14.30;99.90;;;;;;5091805;28;20096;-64
2021/08/04 01:48:39;;;;;;;4.28;1.90;;;14.20;99.90;;;;;;5092809;28;20700;-64
2021/08/04 01:51:08;;;;;;;7.80;3.25;;;14.20;99.90;;;;;;5092167;28;20506;-64
2021/08/04 01:53:34;;;;;;;5.40;2.17;;;14.20;99.90;;;;;;5090711;28;20099;-63
2021/08/04 01:56:01;;;;;;;4.57;2.03;;;14.20;99.90;;;;;;5091707;28;20051;-64
2021/08/04 01:58:27;;;;;;;4.35;2.15;;;14.20;99.90;;;;;;5092341;28;20024;-64
2021/08/04 02:00:53;;;;;;;5.47;2.25;;;14.20;99.90;;;;;;5091472;28;20069;-64
2021/08/04 02:03:18;;;;;;;3.47;1.65;;;14.20;99.90;;;;;;5091989;28;20024;-64
2021/08/04 02:05:46;;;;;;;6.78;2.10;;;14.20;99.90;;;;;;5082217;28;20036;-64
2021/08/04 02:08:15;;;;;;;4.93;1.73;;;14.20;99.90;;;;;;5092093;28;22574;-64
2021/08/04 02:11:08;;;;;;;6.13;2.33;;;14.20;99.90;;;;;;5087942;28;20024;-64
2021/08/04 02:13:48;;;;;;;6.25;2.17;;;14.30;99.90;;;;;;5090257;28;20043;-64
2021/08/04 02:16:17;;;;;;;4.43;2.20;;;14.30;99.90;;;;;;5077317;28;20504;-64
2021/08/04 02:18:47;;;;;;;4.53;2.10;;;14.30;99.90;;;;;;5081342;28;20210;-64
2021/08/04 02:21:15;;;;;;;4.18;2.28;;;14.30;99.90;;;;;;5091275;28;20024;-64
2021/08/04 02:23:42;;;;;;;5.22;2.63;;;14.20;99.90;;;;;;5087979;28;20594;-64
2021/08/04 02:26:14;;;;;;;4.65;2.55;;;14.20;99.90;;;;;;5091239;28;20107;-63
2021/08/04 02:28:44;;;;;;;2.83;1.60;;;14.20;99.90;;;;;;5087679;28;20028;-64
2021/08/04 02:31:13;;;;;;;7.85;2.42;;;14.20;99.90;;;;;;5087892;28;20069;-64
2021/08/04 02:33:40;;;;;;;4.88;2.05;;;14.20;99.90;;;;;;5087234;28;20556;-64
2021/08/04 02:36:06;;;;;;;5.38;2.10;;;14.20;99.90;;;;;;5091598;28;20066;-64
2021/08/04 02:38:32;;;;;;;3.20;1.50;;;14.30;99.90;;;;;;5090698;28;20488;-64
2021/08/04 02:40:59;;;;;;;3.25;1.88;;;14.30;99.90;;;;;;5091637;28;20077;-63
2021/08/04 02:43:25;;;;;;;4.03;1.83;;;14.30;99.90;;;;;;5090825;28;20487;-64
2021/08/04 02:45:52;;;;;;;3.47;2.10;;;14.40;99.90;;;;;;5091007;28;20020;-64
2021/08/04 02:48:19;;;;;;;4.90;1.90;;;14.40;99.90;;;;;;5091292;28;20032;-64
2021/08/04 02:50:53;;;;;;;3.53;1.80;;;14.40;99.90;;;;;;5091255;28;20040;-64
2021/08/04 02:53:19;;;;;;;3.67;2.33;;;14.60;99.90;;;;;;5091171;28;20056;-64
2021/08/04 02:55:49;;;;;;;4.35;1.80;;;14.50;99.90;;;;;;5089254;28;20040;-64
2021/08/04 02:58:14;;;;;;;3.15;2.10;;;14.50;99.90;;;;;;5090894;28;20039;-64
2021/08/04 03:00:40;;;;;;;5.40;2.20;;;14.50;99.90;;;;;;5090937;28;20028;-64
2021/08/04 03:03:06;;;;;;;4.10;1.95;;;14.50;99.90;;;;;;5090747;28;20801;-64
2021/08/04 03:05:32;;;;;;;3.60;2.15;;;14.50;99.90;;;;;;5080813;28;20071;-64
2021/08/04 03:07:57;;;;;;;3.83;1.80;;;14.50;99.90;;;;;;5090955;28;20476;-64
2021/08/04 03:10:24;;;;;;;3.53;1.80;;;14.50;99.90;;;;;;5091135;28;20385;-63
2021/08/04 03:12:49;;;;;;;3.28;1.70;;;14.40;99.90;;;;;;5090290;28;20031;-64
2021/08/04 03:15:15;;;;;;;6.60;2.50;;;14.40;99.90;;;;;;5090946;28;20040;-64
2021/08/04 03:17:41;;;;;;;3.92;1.92;;;14.40;99.90;;;;;;5089937;28;20126;-64
2021/08/04 03:20:07;;;;;;;4.57;2.25;;;14.40;99.90;;;;;;5091080;28;20047;-64
2021/08/04 03:22:33;;;;;;;5.32;2.58;;;14.40;99.90;;;;;;5090227;28;20036;-64
2021/08/04 03:24:58;;;;;;;4.28;1.77;;;14.30;99.90;;;;;;5090610;28;20035;-64
2021/08/04 03:27:24;;;;;;;4.68;2.08;;;14.30;99.90;;;;;;5090398;28;20040;-63
2021/08/04 03:29:49;;;;;;;3.63;2.13;;;14.20;99.90;;;;;;5090020;28;20726;-64
2021/08/04 03:32:16;;;;;;;5.00;2.00;;;14.20;99.90;;;;;;5089926;28;20078;-64
2021/08/04 03:34:41;;;;;;;3.30;1.88;;;14.10;99.90;;;;;;5089866;28;20403;-64
2021/08/04 03:37:07;;;;;;;3.60;2.00;;;14.10;99.90;;;;;;5090267;28;20118;-64
2021/08/04 03:39:32;;;;;;;4.20;2.25;;;14.00;99.90;;;;;;5089530;28;20051;-64
2021/08/04 03:41:58;;;;;;;5.50;2.30;;;13.90;99.90;;;;;;5090023;28;20028;-64
2021/08/04 03:44:24;;;;;;;3.63;1.85;;;13.90;99.90;;;;;;5080775;28;20134;-64
2021/08/04 03:46:49;;;;;;;5.18;2.00;;;13.80;99.90;;;;;;5089461;28;20109;-64
2021/08/04 03:49:16;;;;;;;6.88;3.15;;;13.80;99.90;;;;;;5090379;28;20077;-64
2021/08/04 03:51:42;;;;;;;4.88;2.53;;;13.70;99.90;;;;;;5089639;28;20032;-64
2021/08/04 03:54:07;;;;;;;6.00;2.30;;;13.70;99.90;;;;;;5090594;28;20496;-64
2021/08/04 03:56:33;;;;;;;4.32;2.15;;;13.60;99.90;;;;;;5089719;28;20090;-64
2021/08/04 03:58:58;;;;;;;3.47;2.05;;;13.60;99.90;;;;;;5088620;28;20403;-64
2021/08/04 04:01:24;;;;;;;2.80;1.67;;;13.50;99.90;;;;;;5083463;28;20036;-64
2021/08/04 04:03:50;;;;;;;6.70;2.25;;;13.50;99.90;;;;;;5089644;28;20016;-64
2021/08/04 04:06:15;;;;;;;3.80;2.47;;;13.40;99.90;;;;;;5090048;28;20538;-64
2021/08/04 04:08:41;;;;;;;4.45;2.38;;;13.30;99.90;;;;;;5089758;28;20484;-64
2021/08/04 04:11:06;;;;;;;4.20;2.50;;;13.30;99.90;;;;;;5090417;28;20438;-63
2021/08/04 04:13:32;;;;;;;3.88;2.10;;;13.30;99.90;;;;;;5090082;28;20058;-64
2021/08/04 04:15:58;;;;;;;4.32;2.45;;;13.30;99.90;;;;;;5089074;28;20036;-64
2021/08/04 04:18:23;;;;;;;4.15;2.22;;;13.30;99.90;;;;;;5089958;28;20063;-64
2021/08/04 04:20:49;;;;;;;6.03;2.45;;;13.30;99.90;;;;;;5089623;28;20032;-64
2021/08/04 04:23:15;;;;;;;3.95;2.17;;;13.40;99.90;;;;;;5089607;28;20054;-64
2021/08/04 04:25:40;;;;;;;6.97;2.60;;;13.40;99.90;;;;;;5080248;28;20036;-64
2021/08/04 04:28:06;;;;;;;5.50;2.05;;;13.50;99.90;;;;;;5089512;28;20032;-64
2021/08/04 04:30:31;;;;;;;4.93;2.25;;;13.50;99.90;;;;;;5085440;28;20040;-64
2021/08/04 04:32:57;;;;;;;4.90;2.53;;;13.50;99.90;;;;;;5088448;28;20028;-64
2021/08/04 04:35:23;;;;;;;4.72;2.88;;;13.50;99.90;;;;;;5089025;28;20431;-64
2021/08/04 04:37:48;;;;;;;4.82;3.20;;;13.50;99.90;;;;;;5088349;28;20499;-64
2021/08/04 04:40:14;;;;;;;4.78;2.35;;;13.50;99.90;;;;;;5089787;28;20071;-64
2021/08/04 04:42:39;;;;;;;4.35;2.40;;;13.50;99.90;;;;;;5089287;28;20028;-64
2021/08/04 04:45:06;;;;;;;3.95;2.63;;;13.50;99.90;;;;;;5088044;28;20109;-64
2021/08/04 04:47:31;;;;;;;5.95;3.08;;;13.50;99.90;;;;;;5087119;28;20035;-64
2021/08/04 04:49:57;;;;;;;4.57;2.72;;;13.60;99.90;;;;;;5088378;28;20032;-64
2021/08/04 04:52:22;;;;;;;9.70;2.58;;;13.60;99.90;;;;;;5088500;28;20640;-64
2021/08/04 04:54:48;;;;;;;6.35;2.55;;;13.60;99.90;;;;;;5088399;28;20036;-65
2021/08/04 04:57:13;;;;;;;5.20;2.58;;;13.70;99.90;;;;;;5088441;28;20035;-64
2021/08/04 04:59:39;;;;;;;6.28;2.40;;;13.70;99.90;;;;;;5088446;28;20039;-64
2021/08/04 05:02:05;;;;;;;5.10;2.60;;;13.70;99.90;;;;;;5088164;28;20086;-64
2021/08/04 05:04:30;;;;;;;8.77;2.28;;;13.80;99.90;;;;;;5088053;28;20652;-64
2021/08/04 05:06:56;;;;;;;3.78;2.28;;;13.80;99.90;;;;;;5088461;28;20062;-64
2021/08/04 05:09:21;;;;;;;4.25;2.55;;;13.80;99.90;;;;;;5085984;28;20028;-64
2021/08/04 05:11:47;;;;;;;4.38;2.65;;;13.90;99.90;;;;;;5088089;28;20065;-63
2021/08/04 05:14:12;;;;;;;5.32;3.03;;;13.90;99.90;;;;;;5082658;28;20031;-64
2021/08/04 05:16:38;;;;;;;6.68;2.72;;;13.90;99.90;;;;;;5083727;28;20089;-63
2021/08/04 05:19:03;;;;;;;7.22;2.97;;;14.00;99.90;;;;;;5086207;28;20408;-64
2021/08/04 05:21:29;;;;;;;8.25;2.63;;;14.00;99.90;;;;;;5087663;28;20350;-64
2021/08/04 05:23:55;;;;;;;4.60;2.38;;;14.10;99.90;;;;;;5086954;28;20084;-64
2021/08/04 05:26:23;;;;;;;4.68;2.40;;;14.20;99.90;;;;;;5087712;28;20031;-63
2021/08/04 05:28:52;;;;;;;4.55;2.58;;;14.20;99.90;;;;;;5087099;28;20017;-64
2021/08/04 05:31:18;;;;;;;4.82;2.80;;;14.30;99.90;;;;;;5085895;28;20028;-63
2021/08/04 05:33:44;;;;;;;4.07;2.42;;;14.40;99.90;;;;;;5087420;28;20051;-64
2021/08/04 05:36:10;;;;;;;5.18;2.38;;;14.40;99.90;;;;;;5085180;28;20421;-64
2021/08/04 05:38:35;;;;;;;3.45;2.17;;;14.50;99.90;;;;;;5087538;28;20028;-64
2021/08/04 05:41:01;;;;;;;7.70;2.70;;;14.60;99.90;;;;;;5087165;28;20454;-64
2021/08/04 05:43:26;;;;;;;4.60;2.55;;;14.60;99.90;;;;;;5086816;28;20032;-64
2021/08/04 05:45:52;;;;;;;3.22;2.10;;;14.80;99.90;;;;;;5087040;28;20254;-64
2021/08/04 05:48:17;;;;;;;5.00;2.40;;;14.90;99.90;;;;;;5087301;28;20036;-64
2021/08/04 05:50:43;;;;;;;3.00;2.00;;;15.20;99.90;;;;;;5087331;28;20050;-64
2021/08/04 05:53:09;;;;;;;4.07;2.03;;;15.30;99.90;;;;;;5085580;28;20036;-64
2021/08/04 05:55:35;;;;;;;3.63;2.30;;;15.50;99.90;;;;;;5085501;28;20024;-64
2021/08/04 05:58:01;;;;;;;6.32;2.30;;;15.60;99.90;;;;;;5087003;28;20032;-64
2021/08/04 06:00:26;;;;;;;5.57;2.47;;;15.70;99.90;;;;;;5086630;28;20028;-64
2021/08/04 06:02:52;;;;;;;6.03;2.33;;;15.80;99.90;;;;;;5088356;28;20672;-64
2021/08/04 06:05:18;;;;;;;3.28;1.98;;;15.90;99.90;;;;;;5083656;28;21431;-64
2021/08/04 06:07:43;;;;;;;5.53;2.22;;;16.00;99.90;;;;;;5087494;28;20028;-64
2021/08/04 06:10:10;;;;;;;4.60;2.03;;;16.10;99.90;;;;;;5086791;28;20040;-64
2021/08/04 06:12:35;;;;;;;6.10;2.50;;;16.10;99.90;;;;;;5086048;28;20399;-64
2021/08/04 06:15:01;;;;;;;4.93;2.00;;;16.30;99.90;;;;;;5088251;28;20036;-64
2021/08/04 06:17:27;;;;;;;4.63;2.50;;;16.40;99.90;;;;;;5089904;28;20036;-64
2021/08/04 06:19:52;;;;;;;4.43;2.08;;;16.70;99.90;;;;;;5078118;28;20418;-64
2021/08/04 06:22:18;;;;;;;3.80;1.88;;;16.80;99.90;;;;;;5090655;28;20496;-64
2021/08/04 06:24:43;;;;;;;7.10;3.00;;;17.00;99.90;;;;;;5092889;28;20161;-64
2021/08/04 06:27:09;;;;;;;5.65;2.55;;;17.20;99.90;;;;;;5090612;28;20091;-64
2021/08/04 06:29:35;;;;;;;5.13;2.53;;;17.30;99.90;;;;;;5094261;28;20032;-64
2021/08/04 06:32:01;;;;;;;5.78;2.10;;;17.50;99.90;;;;;;5092080;28;20024;-64
2021/08/04 06:34:26;;;;;;;5.72;2.42;;;17.60;99.90;;;;;;5092623;28;20039;-64
2021/08/04 06:36:52;;;;;;;4.28;2.28;;;17.60;99.90;;;;;;5091172;28;20066;-64
2021/08/04 06:39:18;;;;;;;6.15;1.75;;;17.60;99.90;;;;;;5094269;28;20027;-64
2021/08/04 06:41:43;;;;;;;7.10;2.50;;;17.80;99.90;;;;;;5092940;28;20369;-66
2021/08/04 06:44:09;;;;;;;3.40;1.98;;;18.00;99.90;;;;;;5092695;28;20040;-65
2021/08/04 06:46:37;;;;;;;7.65;2.60;;;18.20;99.90;;;;;;5089799;28;20039;-65
2021/08/04 06:49:04;;;;;;;3.80;2.13;;;18.40;99.90;;;;;;5091506;28;20090;-65
2021/08/04 06:51:30;;;;;;;5.07;2.28;;;18.60;99.90;;;;;;5090262;28;20046;-65
2021/08/04 06:53:56;;;;;;;3.28;1.85;;;19.00;99.90;;;;;;5090832;28;20404;-64
2021/08/04 06:56:22;;;;;;;4.20;2.05;;;19.40;99.90;;;;;;5088378;28;20028;-65
2021/08/04 06:58:48;;;;;;;4.85;2.03;;;19.90;99.90;;;;;;5091905;28;20107;-65
2021/08/04 07:01:14;;;;;;;5.32;1.98;;;20.50;99.90;;;;;;5089777;28;20070;-65
2021/08/04 07:03:39;;;;;;;5.80;1.88;;;20.90;99.90;;;;;;5091136;28;20060;-66
2021/08/04 07:06:08;;;;;;;5.07;2.08;;;21.60;99.90;;;;;;5090794;28;20028;-65
2021/08/04 07:08:34;;;;;;;4.30;1.88;;;22.30;99.90;;;;;;5091912;28;20108;-65
2021/08/04 07:11:00;;;;;;;3.72;1.83;;;23.00;99.90;;;;;;5090448;28;20859;-65
2021/08/04 07:13:25;;;;;;;2.03;1.48;;;23.40;99.90;;;;;;5092160;28;20038;-66
2021/08/04 07:15:51;;;;;;;2.72;1.58;;;23.80;99.90;;;;;;5091243;28;20051;-65
2021/08/04 07:18:17;;;;;;;3.15;1.70;;;24.30;99.90;;;;;;5089056;28;20051;-65
2021/08/04 07:20:42;;;;;;;5.43;1.85;;;24.60;99.90;;;;;;5090687;28;20218;-65
2021/08/04 07:23:08;;;;;;;6.10;1.80;;;24.90;99.90;;;;;;5092066;28;20048;-65
2021/08/04 07:25:34;;;;;;;3.63;1.80;;;25.20;98.70;;;;;;5090835;28;20043;-65
2021/08/04 07:27:59;;;;;;;8.15;1.90;;;25.40;97.70;;;;;;5088999;28;20036;-65
2021/08/04 07:30:25;;;;;;;3.20;2.10;;;25.60;97.80;;;;;;5090012;28;20038;-65
2021/08/04 07:32:51;;;;;;;5.13;2.08;;;25.90;97.10;;;;;;5089388;28;20396;-66
2021/08/04 07:35:17;;;;;;;3.40;2.22;;;26.80;96.10;;;;;;5088553;28;20035;-66
2021/08/04 07:37:43;;;;;;;4.50;3.13;;;27.50;94.80;;;;;;5083066;28;20422;-66
2021/08/04 07:40:09;;;;;;;6.15;2.47;;;28.10;92.20;;;;;;5085990;28;20038;-66
2021/08/04 07:42:35;;;;;;;7.30;2.45;;;28.30;91.20;;;;;;5086450;28;20043;-66
2021/08/04 07:45:00;;;;;;;3.75;2.50;;;29.10;87.50;;;;;;5088807;28;20055;-66
2021/08/04 07:47:26;;;;;;;6.55;2.70;;;29.50;85.30;;;;;;5090530;28;20061;-67
2021/08/04 07:49:52;;;;;;;3.97;2.25;;;29.70;82.80;;;;;;5090912;28;20032;-65
2021/08/04 07:52:17;;;;;;;3.95;2.53;;;29.80;81.80;;;;;;5090797;28;20081;-65
2021/08/04 07:54:43;;;;;;;3.90;2.47;;;30.20;80.30;;;;;;5088047;28;20025;-66
2021/08/04 07:57:09;;;;;;;6.82;2.47;;;30.10;77.80;;;;;;5088776;28;20399;-66
2021/08/04 07:59:34;;;;;;;4.22;2.30;;;30.00;77.10;;;;;;5088996;28;20678;-66
2021/08/04 08:02:00;;;;;;;3.65;2.72;;;30.10;76.00;;;;;;5088263;28;20581;-66
2021/08/04 08:04:26;;;;;;;4.70;2.42;;;29.70;74.20;;;;;;5089324;28;20036;-65
2021/08/04 08:06:52;;;;;;;5.15;2.47;;;29.60;74.30;;;;;;5090043;28;20800;-66
2021/08/04 08:09:21;;;;;;;2.83;2.05;;;29.60;73.80;;;;;;5090197;28;20101;-66
2021/08/04 08:11:50;;;;;;;;;;;29.40;73.20;;;;;;5072102;28;20036;-65
2021/08/04 08:14:16;;;;;;;2.83;1.90;;;29.20;72.30;;;;;;5087960;28;19916;-65
2021/08/04 08:16:42;;;;;;;2.42;1.48;;;28.80;73.10;;;;;;5086759;28;20020;-65
2021/08/04 08:19:07;;;;;;;2.47;1.77;;;28.60;74.60;;;;;;5086499;28;20106;-65
2021/08/04 08:21:33;;;;;;;2.63;1.40;;;28.00;74.50;;;;;;5087402;28;20554;-66
2021/08/04 08:23:59;;;;;;;8.07;1.50;;;27.90;74.00;;;;;;5087650;28;20111;-66
2021/08/04 08:26:25;;;;;;;2.53;1.33;;;27.40;75.70;;;;;;5087835;28;20047;-65
2021/08/04 08:28:51;;;;;;;2.80;1.38;;;27.30;77.40;;;;;;5077223;28;20039;-65
2021/08/04 08:31:16;;;;;;;3.60;1.45;;;26.70;76.40;;;;;;5067391;28;20028;-65
2021/08/04 08:33:42;;;;;;;2.60;1.10;;;26.30;76.90;;;;;;5067181;28;20242;-65
2021/08/04 08:36:08;;;;;;;2.03;0.85;;;26.00;77.00;;;;;;5066965;28;20524;-65
2021/08/04 08:38:33;;;;;;;3.25;1.10;;;25.60;77.90;;;;;;5066939;28;20067;-65
2021/08/04 08:40:59;;;;;;;3.83;1.35;;;25.20;80.10;;;;;;5067047;28;20036;-65
2021/08/04 08:43:25;;;;;;;1.70;0.80;;;24.90;78.90;;;;;;5067115;28;20036;-65
2021/08/04 08:45:52;;;;;;;1.92;0.85;;;24.80;81.60;;;;;;5066269;28;20089;-65
2021/08/04 08:48:19;;;;;;;1.50;0.77;;;24.70;82.00;;;;;;5065592;28;20025;-65
2021/08/04 08:50:46;;;;;;;2.92;1.20;;;24.60;82.60;;;;;;5066505;28;20508;-65
2021/08/04 08:53:12;;;;;;;2.38;1.20;;;24.60;81.40;;;;;;5066687;28;20119;-65
2021/08/04 08:55:39;;;;;;;2.45;1.17;;;24.50;82.30;;;;;;5066840;28;20036;-65
2021/08/04 08:58:04;;;;;;;2.40;1.30;;;24.30;83.40;;;;;;5066534;28;20087;-65
2021/08/04 09:00:30;;;;;;;2.33;1.20;;;24.20;82.50;;;;;;5067100;28;20078;-65
2021/08/04 09:02:56;;;;;;;2.58;1.10;;;24.20;84.30;;;;;;5066461;28;20733;-66
2021/08/04 09:05:22;;;;;;;2.55;1.45;;;24.10;84.80;;;;;;5066627;28;20033;-65
2021/08/04 09:07:48;;;;;;;3.83;1.38;;;24.00;85.30;;;;;;5066686;28;20090;-65
2021/08/04 09:10:25;;;;;;;2.55;1.45;;;24.00;85.60;;;;;;5066800;28;20036;-65
2021/08/04 09:12:57;;;;;;;3.67;1.38;;;24.00;84.20;;;;;;5065892;28;20106;-65
2021/08/04 09:15:22;;;;;;;3.53;1.58;;;23.90;86.00;;;;;;5066783;28;20024;-65
2021/08/04 09:18:04;;;;;;;4.60;1.60;;;24.00;87.30;;;;;;5065206;28;20047;-66
2021/08/04 09:20:39;;;;;;;2.97;1.40;;;24.10;87.10;;;;;;5066594;28;20040;-65
2021/08/04 09:23:05;;;;;;;2.88;1.08;;;24.20;88.10;;;;;;5066542;28;20036;-65
2021/08/04 09:25:30;;;;;;;4.55;1.58;;;24.00;88.60;;;;;;5066970;28;20025;-65
2021/08/04 09:27:58;;;;;;;2.97;1.40;;;24.00;89.80;;;;;;5065992;28;20032;-65
2021/08/04 09:30:35;;;;;;;3.88;1.38;;;24.00;89.50;;;;;;5052565;28;20500;-65
2021/08/04 09:33:12;;;;;;;2.53;0.95;;;23.60;90.00;;;;;;5066662;28;20040;-66
2021/08/04 09:35:50;;;;;;;2.95;1.13;;;23.30;90.40;;;;;;5064020;28;20120;-65
2021/08/04 09:38:17;;;;;;;1.42;0.60;;;23.10;86.40;;;;;;5064171;28;20041;-65
2021/08/04 09:40:43;;;;;;;2.08;1.05;;;23.00;88.10;;;;;;5067227;28;20040;-65
2021/08/04 09:43:09;;;;;;;1.35;0.75;;;23.20;89.00;;;;;;5066709;28;20044;-66
2021/08/04 09:45:43;;;;;;;1.85;0.85;;;23.50;89.90;;;;;;5066647;28;20043;-65
2021/08/04 09:48:11;;;;;;;2.65;0.90;;;23.80;90.30;;;;;;5066664;28;20103;-65
2021/08/04 09:50:56;;;;;;;2.83;1.02;;;24.00;90.10;;;;;;5069166;28;20036;-65
2021/08/04 09:53:32;;;;;;;4.55;0.82;;;24.20;84.60;;;;;;5068698;28;20044;-65
2021/08/04 09:56:14;;;;;;;1.58;0.70;;;24.50;84.00;;;;;;5070491;28;20071;-65
2021/08/04 09:58:46;;;;;;;3.92;1.13;;;24.50;84.10;;;;;;5070262;28;20033;-65
2021/08/04 10:01:14;;;;;;;6.70;0.95;;;24.00;82.70;;;;;;5071320;28;20040;-65
2021/08/04 10:04:00;;;;;;;4.40;1.20;;;23.80;86.70;;;;;;5070306;28;20029;-65
2021/08/04 10:06:27;;;;;;;1.77;1.02;;;23.80;87.90;;;;;;5068807;28;20041;-65
2021/08/04 10:08:52;;;;;;;2.88;1.15;;;24.00;84.10;;;;;;5072448;28;20075;-65
2021/08/04 10:11:18;;;;;;;2.47;1.05;;;24.30;83.80;;;;;;5071746;28;20493;-66
2021/08/04 10:13:44;;;;;;;2.03;1.00;;;24.40;82.20;;;;;;5070919;28;20470;-65
2021/08/04 10:16:10;;;;;;;4.22;0.70;;;24.50;78.10;;;;;;5071661;28;20048;-64
2021/08/04 10:18:38;;;;;;;1.33;0.88;;;24.50;81.00;;;;;;5071009;28;20049;-65
2021/08/04 10:21:10;;;;;;;3.47;1.00;;;24.40;80.40;;;;;;5071464;28;20087;-65
2021/08/04 10:23:38;;;;;;;1.08;0.55;;;24.50;78.20;;;;;;5071079;28;20097;-66
2021/08/04 10:26:09;;;;;;;3.10;1.08;;;24.50;80.50;;;;;;5068956;28;20033;-65
2021/08/04 10:28:35;;;;;;;4.03;0.40;;;24.70;78.20;;;;;;5070415;28;20503;-65
2021/08/04 10:31:02;;;;;;;5.63;0.93;;;24.90;78.30;;;;;;5071102;28;20028;-65
2021/08/04 10:33:29;;;;;;;3.30;0.80;;;25.00;76.10;;;;;;5070555;28;20056;-65
2021/08/04 10:35:59;;;;;;;0.98;0.40;;;25.20;74.10;;;;;;5070771;28;20089;-65
2021/08/04 10:38:26;;;;;;;;;;;25.30;77.30;;;;;;5070951;28;20457;-66
2021/08/04 10:41:12;;;;;;;2.50;1.17;;;25.40;80.00;;;;;;5071000;28;20050;-65
2021/08/04 10:43:39;;;;;;;2.60;0.70;;;25.60;75.00;;;;;;5072098;28;20867;-65
2021/08/04 10:46:30;;;;;;;1.38;0.85;;;25.50;76.20;;;;;;5090698;28;20576;-64
2021/08/04 10:49:09;;;;;;;2.42;1.25;;;25.50;77.20;;;;;;5088877;28;20123;-65
2021/08/04 10:51:35;;;;;;;6.15;1.05;;;25.60;76.50;;;;;;5090607;28;20064;-66
2021/08/04 10:54:01;;;;;;;3.35;0.75;;;25.50;78.10;;;;;;5089073;28;20336;-65
2021/08/04 10:56:32;;;;;;;2.53;0.65;;;25.40;75.10;;;;;;5090624;28;20116;-65
2021/08/04 10:59:11;;;;;;;1.27;0.50;;;25.40;73.30;;;;;;5086259;28;20862;-65
2021/08/04 11:01:53;;;;;;;2.65;0.75;;;25.60;74.30;;;;;;5090758;28;20398;-65
2021/08/04 11:04:28;;;;;;;1.88;0.85;;;25.50;75.00;;;;;;5090337;28;20748;-65
2021/08/04 11:07:08;;;;;;;2.10;0.80;;;25.50;76.60;;;;;;5088884;28;20036;-65
2021/08/04 11:09:46;;;;;;;2.00;0.80;;;25.50;76.20;;;;;;5089705;28;20530;-65
2021/08/04 11:12:16;;;;;;;5.05;0.90;;;25.60;77.70;;;;;;5094271;28;20043;-65
2021/08/04 11:14:43;;;;;;;1.52;0.80;;;25.90;79.10;;;;;;5070089;28;20032;-65
2021/08/04 11:17:11;;;;;;;1.48;0.60;;;25.90;76.20;;;;;;5084171;28;20699;-65
2021/08/04 11:20:08;;;;;;;2.15;0.60;;;26.00;75.70;;;;;;5093223;28;20523;-65
2021/08/04 11:22:37;;;;;;;0.82;0.40;;;26.30;76.70;;;;;;5089977;28;20040;-65
2021/08/04 11:25:08;;;;;;;1.15;0.30;;;26.40;73.30;;;;;;5090903;28;20109;-65
2021/08/04 11:27:53;;;;;;;3.55;0.70;;;26.30;71.60;;;;;;5088483;28;20047;-65
2021/08/04 11:30:35;;;;;;;1.42;0.60;;;26.30;75.50;;;;;;5071111;28;20487;-65
2021/08/04 11:33:18;;;;;;;1.25;0.52;;;26.50;73.30;;;;;;5069148;28;20028;-65
2021/08/04 11:36:14;;;;;;;1.27;0.50;;;26.50;74.70;;;;;;5068094;28;20044;-65
2021/08/04 11:38:52;;;;;;;2.40;0.93;;;26.60;71.60;;;;;;5066223;28;20055;-65
2021/08/04 11:41:45;;;;;;;1.95;0.70;;;26.60;72.90;;;;;;5068424;28;20037;-65
2021/08/04 11:44:12;;;;;;;2.92;0.82;;;26.40;72.40;;;;;;5060582;28;20113;-65
2021/08/04 11:46:44;;;;;;;1.95;0.98;;;26.30;74.60;;;;;;5067202;28;20507;-65
2021/08/04 11:49:16;;;;;;;0.82;0.50;;;26.10;73.20;;;;;;5066809;28;20664;-65
2021/08/04 11:51:44;;;;;;;2.85;0.68;;;26.00;76.30;;;;;;5067515;28;20045;-65
2021/08/04 11:54:12;;;;;;;1.42;0.50;;;25.80;76.60;;;;;;5067141;28;20299;-65
2021/08/04 11:56:48;;;;;;;1.23;0.80;;;25.50;76.90;;;;;;5065290;28;20067;-65
2021/08/04 11:59:14;;;;;;;1.38;0.70;;;25.40;75.40;;;;;;5066459;28;20028;-65
2021/08/04 12:01:52;;;;;;;1.42;0.50;;;25.10;75.00;;;;;;5069014;28;20032;-65
2021/08/04 12:04:17;;;;;;;1.40;0.68;;;24.90;79.80;;;;;;5065870;28;20389;-65
2021/08/04 12:06:56;;;;;;;8.32;0.75;;;24.60;80.50;;;;;;5067828;28;20037;-65
2021/08/04 12:09:27;;;;;;;1.63;0.63;;;24.50;81.40;;;;;;5060284;28;20042;-65
2021/08/04 12:11:55;;;;;;;1.35;0.68;;;24.50;82.80;;;;;;5064940;28;20028;-64
2021/08/04 12:14:21;;;;;;;1.55;1.02;;;24.50;83.60;;;;;;5065414;28;20063;-65
2021/08/04 12:16:50;;;;;;;2.33;0.93;;;24.50;80.60;;;;;;5064531;28;20036;-64
2021/08/04 12:19:37;;;;;;;2.30;0.70;;;24.60;77.70;;;;;;5064363;28;20652;-64
2021/08/04 12:22:20;;;;;;;1.65;0.65;;;24.60;80.30;;;;;;5030887;28;20071;-65
2021/08/04 12:24:49;;;;;;;1.38;0.65;;;24.60;80.20;;;;;;5061925;28;20036;-66
2021/08/04 12:27:32;;;;;;;1.00;0.52;;;24.40;80.80;;;;;;5064888;28;20133;-64
2021/08/04 12:30:08;;;;;;;1.77;0.60;;;24.20;80.90;;;;;;5064343;28;20025;-65
2021/08/04 12:32:46;;;;;;;3.22;1.10;;;24.00;81.20;;;;;;5064831;28;20040;-65
2021/08/04 12:35:15;;;;;;;2.08;0.85;;;24.10;82.20;;;;;;5062467;28;20032;-64
2021/08/04 12:37:41;;;;;;;2.20;1.25;;;24.00;82.70;;;;;;5063980;28;20097;-65
2021/08/04 12:40:13;;;;;;;1.50;0.75;;;24.00;80.40;;;;;;5064590;28;20040;-64
2021/08/04 12:42:39;;;;;;;2.58;0.90;;;24.00;81.20;;;;;;5063740;28;20047;-64
2021/08/04 12:45:24;;;;;;;1.38;0.60;;;23.80;82.10;;;;;;5064821;28;21432;-64
2021/08/04 12:47:57;;;;;;;2.05;0.68;;;23.70;83.40;;;;;;5063015;28;20568;-64
2021/08/04 12:50:25;;;;;;;2.20;0.77;;;23.60;84.60;;;;;;5064935;28;20467;-63
2021/08/04 12:52:51;;;;;;;3.58;0.80;;;23.50;82.90;;;;;;5065323;28;20028;-64
2021/08/04 12:55:17;;;;;;;2.85;1.10;;;23.30;85.80;;;;;;5066125;28;20030;-64